Time;durP1;ratioP1;P1;durP2;ratioP2;P2;SDS_P1;SDS_P2;PMS_P1;PMS_P2;Temp;Humidity;BMP_temperature;BMP_pressure;BME280_temperature;BME280_humidity;BME280_pressure;Samples;Min_cycle;Max_cycle;Signal;HPM_P1;HPM_P2
2021/12/25 00:01:25;;;;;;;4.80;4.30;;;;;;;;;;5033518;28;20454;-65
2021/12/25 00:03:53;;;;;;;3.95;3.63;;;;;;;;;;5032131;28;20462;-65
2021/12/25 00:06:18;;;;;;;5.28;4.43;;;;;;;;;;5033161;28;20025;-65
2021/12/25 00:08:43;;;;;;;4.93;4.47;;;;;;;;;;5030486;28;20462;-65
2021/12/25 00:11:10;;;;;;;5.10;4.60;;;;;;;;;;5026233;28;20412;-65
2021/12/25 00:13:36;;;;;;;5.03;4.47;;;;;;;;;;5032109;28;20021;-65
2021/12/25 00:16:01;;;;;;;4.68;4.28;;;;;;;;;;5034891;28;20036;-65
2021/12/25 00:18:27;;;;;;;4.80;4.30;;;;;;;;;;5028311;28;20080;-65
2021/12/25 00:20:52;;;;;;;3.97;3.60;;;;;;;;;;5014445;28;20031;-65
2021/12/25 00:23:17;;;;;;;5.88;5.25;;;;;;;;;;5032941;28;20205;-66
2021/12/25 00:25:47;;;;;;;5.72;5.07;;;;;;;;;;5032992;28;20147;-65
2021/12/25 00:31:08;;;;;;;2.70;2.50;;;;;;;;;;5019643;28;20025;-65
2021/12/25 00:36:03;;;;;;;2.60;2.40;;;;;;;;;;5032365;28;20437;-66
2021/12/25 00:38:28;;;;;;;3.38;2.97;;;;;;;;;;5033088;28;20087;-66
2021/12/25 00:40:53;;;;;;;2.72;2.50;;;;;;;;;;5029568;28;20065;-66
2021/12/25 00:43:18;;;;;;;3.03;2.75;;;;;;;;;;5012465;28;20034;-66
2021/12/25 00:45:43;;;;;;;3.55;3.25;;;;;;;;;;5028681;28;20025;-66
2021/12/25 00:48:09;;;;;;;3.58;3.22;;;;;;;;;;5029133;28;20433;-66
2021/12/25 00:50:34;;;;;;;3.92;3.53;;;;;;;;;;5038185;28;20060;-66
2021/12/25 00:52:59;;;;;;;3.65;3.35;;;;;;;;;;5032225;28;20421;-66
2021/12/25 00:55:25;;;;;;;2.70;2.50;;;;;;;;;;5032151;28;20075;-66
2021/12/25 00:57:50;;;;;;;4.68;3.30;;;;;;;;;;5042242;28;20079;-66
2021/12/25 01:00:16;;;;;;;3.33;2.90;;;;;;;;;;5032479;28;20029;-66
2021/12/25 01:02:42;;;;;;;3.07;2.77;;;;;;;;;;5031875;28;20463;-66
2021/12/25 01:05:08;;;;;;;3.83;3.30;;;;;;;;;;5026935;28;20471;-66
2021/12/25 01:07:33;;;;;;;4.60;3.45;;;;;;;;;;5026642;28;20056;-66
2021/12/25 01:09:59;;;;;;;3.73;3.10;;;;;;;;;;5027041;28;20425;-66
2021/12/25 01:12:24;;;;;;;3.53;2.95;;;;;;;;;;5006229;28;20053;-66
2021/12/25 01:14:56;;;;;;;3.75;3.33;;;;;;;;;;5008697;28;20029;-66
2021/12/25 01:18:14;;;;;;;4.47;3.60;;;;;;;;;;5032171;28;20041;-66
2021/12/25 01:20:33;;;;;;;3.93;3.50;;;;;;;;;;5023700;28;20591;-66
2021/12/25 01:31:29;;;;;;;3.33;3.03;;;;;;;;;;4971213;28;20037;-65
2021/12/25 01:39:03;;;;;;;3.42;3.13;;;;;;;;;;4958655;28;20105;-65
2021/12/25 01:49:41;;;;;;;3.17;2.90;;;;;;;;;;4969845;28;20061;-66
2021/12/25 01:52:07;;;;;;;3.03;2.73;;;;;;;;;;4970819;28;20106;-66
2021/12/25 01:54:32;;;;;;;2.78;2.50;;;;;;;;;;4968130;28;20039;-66
2021/12/25 01:56:57;;;;;;;3.28;3.00;;;;;;;;;;4969809;28;20427;-66
2021/12/25 01:59:23;;;;;;;2.75;2.53;;;;;;;;;;4979409;28;20038;-66
2021/12/25 02:01:48;;;;;;;3.23;2.63;;;;;;;;;;5031869;28;20107;-66
2021/12/25 02:04:13;;;;;;;2.83;2.60;;;;;;;;;;5012514;28;20036;-66
2021/12/25 02:06:38;;;;;;;3.17;2.87;;;;;;;;;;5009687;28;20029;-66
2021/12/25 02:09:04;;;;;;;2.40;2.10;;;;;;;;;;5028104;28;20041;-66
2021/12/25 02:11:29;;;;;;;1.97;1.67;;;;;;;;;;5038832;28;20033;-66
2021/12/25 02:13:55;;;;;;;2.23;1.80;;;;;;;;;;5032954;28;20032;-66
2021/12/25 02:16:23;;;;;;;2.23;2.03;;;;;;;;;;5021527;28;20029;-66
2021/12/25 02:19:12;;;;;;;2.80;2.60;;;;;;;;;;5034036;28;20018;-66
2021/12/25 02:21:39;;;;;;;2.67;2.47;;;;;;;;;;5033665;28;20029;-66
2021/12/25 02:24:06;;;;;;;2.60;2.40;;;;;;;;;;5034973;28;20056;-66
2021/12/25 02:26:32;;;;;;;2.47;2.27;;;;;;;;;;5024538;28;20553;-66
2021/12/25 02:28:57;;;;;;;1.53;1.43;;;;;;;;;;5039134;28;20104;-66
2021/12/25 02:31:23;;;;;;;2.23;2.03;;;;;;;;;;5034692;28;20125;-66
2021/12/25 02:33:48;;;;;;;2.33;2.13;;;;;;;;;;5016848;28;20112;-66
2021/12/25 02:36:13;;;;;;;2.03;1.83;;;;;;;;;;5030266;28;20117;-66
2021/12/25 02:38:39;;;;;;;1.93;1.83;;;;;;;;;;5031145;28;20029;-66
2021/12/25 02:41:05;;;;;;;2.10;1.90;;;;;;;;;;5031897;28;20053;-66
2021/12/25 02:43:31;;;;;;;2.60;2.40;;;;;;;;;;5038879;28;20047;-66
2021/12/25 02:45:56;;;;;;;1.97;1.87;;;;;;;;;;5036278;28;20036;-66
2021/12/25 02:48:22;;;;;;;2.10;1.90;;;;;;;;;;5033613;28;20038;-66
2021/12/25 02:50:47;;;;;;;1.77;1.67;;;;;;;;;;5034385;28;20021;-66
2021/12/25 02:53:14;;;;;;;2.00;1.90;;;;;;;;;;5038097;28;20036;-66
2021/12/25 02:55:40;;;;;;;1.63;1.53;;;;;;;;;;5034411;28;20030;-66
2021/12/25 02:58:05;;;;;;;1.70;1.60;;;;;;;;;;5027833;28;20025;-66
2021/12/25 03:00:39;;;;;;;2.20;2.00;;;;;;;;;;5033929;28;20477;-66
2021/12/25 03:03:06;;;;;;;2.07;1.87;;;;;;;;;;5034111;28;20036;-66
2021/12/25 03:05:31;;;;;;;1.93;1.77;;;;;;;;;;5033494;28;20517;-66
2021/12/25 03:07:57;;;;;;;1.60;1.50;;;;;;;;;;5034128;28;20033;-66
2021/12/25 03:10:22;;;;;;;1.70;1.60;;;;;;;;;;5011020;28;20060;-67
2021/12/25 03:12:54;;;;;;;1.20;1.10;;;;;;;;;;5034317;28;20021;-66
2021/12/25 03:15:31;;;;;;;1.27;0.97;;;;;;;;;;5031269;28;20054;-66
2021/12/25 03:17:57;;;;;;;1.50;1.40;;;;;;;;;;5036705;28;20412;-66
2021/12/25 03:20:23;;;;;;;2.00;1.20;;;;;;;;;;5033052;28;20121;-66
2021/12/25 03:22:48;;;;;;;1.73;1.00;;;;;;;;;;5033253;28;20021;-66
2021/12/25 03:25:14;;;;;;;0.80;0.50;;;;;;;;;;5013802;28;20051;-66
2021/12/25 03:27:40;;;;;;;0.57;0.57;;;;;;;;;;5029123;28;20041;-66
2021/12/25 03:30:06;;;;;;;0.87;0.40;;;;;;;;;;5032966;28;20029;-66
2021/12/25 03:32:31;;;;;;;0.60;0.50;;;;;;;;;;5035846;28;20406;-66
2021/12/25 03:34:57;;;;;;;0.73;0.40;;;;;;;;;;5033604;28;20075;-66
2021/12/25 03:37:22;;;;;;;1.50;0.70;;;;;;;;;;5034177;28;20025;-66
2021/12/25 03:39:47;;;;;;;0.70;0.47;;;;;;;;;;5029530;28;20042;-66
2021/12/25 03:42:12;;;;;;;0.80;0.40;;;;;;;;;;5033500;28;20041;-66
2021/12/25 03:44:37;;;;;;;1.77;0.50;;;;;;;;;;5015616;28;20025;-66
2021/12/25 03:47:11;;;;;;;1.57;0.50;;;;;;;;;;5033941;28;20028;-66
2021/12/25 03:57:54;;;;;;;0.80;0.40;;;;;;;;;;5036602;28;20036;-66
2021/12/25 04:00:27;;;;;;;0.83;0.63;;;;;;;;;;5032747;28;20108;-66
2021/12/25 04:02:57;;;;;;;4.47;0.63;;;;;;;;;;5032519;28;20071;-66
2021/12/25 04:05:27;;;;;;;0.60;0.50;;;;;;;;;;5035942;28;20031;-66
2021/12/25 04:08:09;;;;;;;0.63;0.47;;;;;;;;;;5035218;28;20033;-66
2021/12/25 04:10:37;;;;;;;2.10;0.90;;;;;;;;;;5029286;28;20028;-66
2021/12/25 04:13:04;;;;;;;0.70;0.57;;;;;;;;;;5028121;28;20025;-66
2021/12/25 04:15:29;;;;;;;0.43;0.40;;;;;;;;;;5031663;28;20116;-66
2021/12/25 04:17:54;;;;;;;2.43;0.70;;;;;;;;;;5033390;28;20045;-66
2021/12/25 04:20:20;;;;;;;1.30;0.40;;;;;;;;;;5032010;28;20026;-66
2021/12/25 04:22:52;;;;;;;0.47;0.47;;;;;;;;;;4990979;28;20045;-66
2021/12/25 04:25:22;;;;;;;0.47;0.37;;;;;;;;;;5023396;28;20434;-66
2021/12/25 04:27:48;;;;;;;1.23;0.50;;;;;;;;;;5038230;28;20027;-66
2021/12/25 04:30:33;;;;;;;0.40;0.40;;;;;;;;;;5018833;28;20022;-66
2021/12/25 04:42:35;;;;;;;0.47;0.30;;;;;;;;;;5022146;28;20100;-66
2021/12/25 05:03:30;;;;;;;0.83;0.40;;;;;;;;;;4914371;29;20218;-66
2021/12/25 05:05:55;;;;;;;0.50;0.50;;;;;;;;;;4912087;29;20039;-66
2021/12/25 05:08:21;;;;;;;2.07;0.53;;;;;;;;;;4913767;29;20044;-66
2021/12/25 05:10:46;;;;;;;0.50;0.50;;;;;;;;;;4909359;29;20031;-65
2021/12/25 05:13:11;;;;;;;0.70;0.40;;;;;;;;;;4915772;29;20040;-65
2021/12/25 05:15:36;;;;;;;1.23;0.40;;;;;;;;;;4912461;29;20068;-65
2021/12/25 05:18:02;;;;;;;0.80;0.60;;;;;;;;;;4913156;29;20513;-66
2021/12/25 05:20:27;;;;;;;1.47;0.40;;;;;;;;;;4915159;29;20044;-66
2021/12/25 05:22:52;;;;;;;1.33;0.40;;;;;;;;;;4913641;29;20398;-66
2021/12/25 05:25:17;;;;;;;2.30;0.70;;;;;;;;;;4913324;29;20140;-66
2021/12/25 05:27:44;;;;;;;0.40;0.30;;;;;;;;;;4912761;29;20048;-66
2021/12/25 05:30:10;;;;;;;0.30;0.30;;;;;;;;;;4916515;29;20405;-66
2021/12/25 05:32:35;;;;;;;0.30;0.20;;;;;;;;;;4913609;29;20039;-66
2021/12/25 05:35:00;;;;;;;0.73;0.67;;;;;;;;;;5016145;28;20472;-66
2021/12/25 05:37:26;;;;;;;0.33;0.30;;;;;;;;;;5031107;28;20033;-65
2021/12/25 05:39:51;;;;;;;0.73;0.30;;;;;;;;;;5027201;28;20045;-65
2021/12/25 05:42:17;;;;;;;0.50;0.30;;;;;;;;;;5031459;28;20470;-65
2021/12/25 05:44:43;;;;;;;0.53;0.20;;;;;;;;;;5017443;28;20052;-65
2021/12/25 05:47:08;;;;;;;0.30;0.20;;;;;;;;;;5029916;28;20029;-66
2021/12/25 05:49:34;;;;;;;1.80;0.30;;;;;;;;;;5047765;28;20021;-66
2021/12/25 05:51:59;;;;;;;0.20;0.20;;;;;;;;;;5051816;28;20450;-66
2021/12/25 05:54:24;;;;;;;0.80;0.20;;;;;;;;;;5047229;28;20022;-66
2021/12/25 05:56:49;;;;;;;0.83;0.20;;;;;;;;;;5026488;28;20021;-66
2021/12/25 05:59:14;;;;;;;0.40;0.17;;;;;;;;;;5030535;28;20496;-66
2021/12/25 06:01:40;;;;;;;1.03;0.30;;;;;;;;;;5031509;28;20390;-66
2021/12/25 06:04:05;;;;;;;0.13;0.10;;;;;;;;;;5029979;28;20028;-66
2021/12/25 06:06:30;;;;;;;0.33;0.10;;;;;;;;;;5031628;28;20020;-66
2021/12/25 06:08:55;;;;;;;0.93;0.33;;;;;;;;;;5026741;28;20440;-66
2021/12/25 06:11:23;;;;;;;0.30;0.10;;;;;;;;;;5034571;28;20805;-66
2021/12/25 06:13:57;;;;;;;1.03;0.30;;;;;;;;;;5030876;28;20021;-66
2021/12/25 06:16:22;;;;;;;0.60;0.20;;;;;;;;;;5031712;28;20497;-66
2021/12/25 06:18:48;;;;;;;0.40;0.20;;;;;;;;;;5027709;28;20036;-66
2021/12/25 06:21:13;;;;;;;1.90;0.20;;;;;;;;;;5031287;28;20037;-66
2021/12/25 06:23:38;;;;;;;0.40;0.30;;;;;;;;;;5040319;28;20040;-66
2021/12/25 06:26:03;;;;;;;1.53;0.30;;;;;;;;;;5030869;28;20029;-66
2021/12/25 06:28:29;;;;;;;1.10;0.40;;;;;;;;;;5030501;28;20056;-66
2021/12/25 06:30:54;;;;;;;0.83;0.33;;;;;;;;;;5038461;28;20021;-66
2021/12/25 06:33:19;;;;;;;2.07;0.40;;;;;;;;;;5031188;28;20421;-66
2021/12/25 06:35:44;;;;;;;1.80;0.60;;;;;;;;;;5030678;28;20021;-66
2021/12/25 06:38:10;;;;;;;0.87;0.50;;;;;;;;;;5031254;28;20437;-66
2021/12/25 06:40:35;;;;;;;0.40;0.40;;;;;;;;;;5024550;28;20049;-66
2021/12/25 06:43:01;;;;;;;1.07;0.70;;;;;;;;;;5020570;28;20091;-67
2021/12/25 06:45:27;;;;;;;0.80;0.60;;;;;;;;;;5030412;28;20439;-66
2021/12/25 06:47:53;;;;;;;2.43;0.80;;;;;;;;;;5027224;28;20142;-66
2021/12/25 06:50:18;;;;;;;2.40;0.90;;;;;;;;;;5027049;28;20108;-66
2021/12/25 06:52:45;;;;;;;1.73;0.80;;;;;;;;;;5018792;28;20047;-66
2021/12/25 06:55:11;;;;;;;1.70;0.60;;;;;;;;;;5025182;28;20028;-66
2021/12/25 06:57:43;;;;;;;1.90;1.00;;;;;;;;;;5027053;28;20038;-66
2021/12/25 07:00:09;;;;;;;2.10;0.93;;;;;;;;;;5026308;28;20088;-66
2021/12/25 07:02:34;;;;;;;1.40;1.17;;;;;;;;;;5006273;28;20029;-66
2021/12/25 07:05:00;;;;;;;1.73;1.03;;;;;;;;;;5033759;28;20025;-66
2021/12/25 07:07:25;;;;;;;2.20;1.17;;;;;;;;;;5034931;28;20025;-65
2021/12/25 07:09:50;;;;;;;3.10;1.63;;;;;;;;;;5029699;28;20038;-66
2021/12/25 07:12:16;;;;;;;2.67;1.63;;;;;;;;;;5000996;28;20460;-66
2021/12/25 07:14:41;;;;;;;3.20;1.43;;;;;;;;;;5039036;28;20021;-65
2021/12/25 07:17:06;;;;;;;2.40;1.63;;;;;;;;;;5054622;28;20037;-66
2021/12/25 07:19:31;;;;;;;3.43;1.50;;;;;;;;;;5033771;28;20080;-66
2021/12/25 07:21:56;;;;;;;3.43;1.63;;;;;;;;;;5016187;28;20119;-66
2021/12/25 07:24:21;;;;;;;3.87;1.60;;;;;;;;;;5017188;28;20052;-66
2021/12/25 07:26:47;;;;;;;2.57;1.67;;;;;;;;;;5037939;28;20033;-66
2021/12/25 07:29:12;;;;;;;3.80;2.50;;;;;;;;;;5048564;28;20068;-66
2021/12/25 07:31:38;;;;;;;5.87;3.30;;;;;;;;;;5033774;28;20021;-66
2021/12/25 07:34:03;;;;;;;2.30;2.00;;;;;;;;;;5039522;28;20461;-66
2021/12/25 07:36:29;;;;;;;4.13;2.10;;;;;;;;;;5054243;28;20543;-66
2021/12/25 07:38:55;;;;;;;3.27;2.50;;;;;;;;;;5047610;28;20108;-66
2021/12/25 07:41:20;;;;;;;4.87;2.80;;;;;;;;;;5032596;28;20030;-66
2021/12/25 07:43:45;;;;;;;4.20;3.23;;;;;;;;;;5033941;28;20030;-66
2021/12/25 07:46:10;;;;;;;5.20;3.27;;;;;;;;;;5037481;28;20033;-66
2021/12/25 07:48:36;;;;;;;4.63;3.30;;;;;;;;;;5023758;28;20133;-66
2021/12/25 07:51:02;;;;;;;4.57;3.30;;;;;;;;;;5033752;28;20061;-66
2021/12/25 07:53:28;;;;;;;6.13;4.63;;;;;;;;;;5037447;28;20029;-66
2021/12/25 07:55:53;;;;;;;5.70;3.77;;;;;;;;;;5033807;28;20029;-66
2021/12/25 07:58:19;;;;;;;7.47;4.47;;;;;;;;;;5024496;28;20052;-65
2021/12/25 08:00:44;;;;;;;8.03;4.60;;;;;;;;;;5015527;28;20259;-65
2021/12/25 08:03:11;;;;;;;5.73;3.87;;;;;;;;;;5033673;28;20029;-65
2021/12/25 08:05:36;;;;;;;5.63;4.07;;;;;;;;;;5036896;28;20040;-65
2021/12/25 08:08:03;;;;;;;6.63;4.10;;;;;;;;;;5033775;28;20017;-65
2021/12/25 08:10:28;;;;;;;7.93;4.20;;;;;;;;;;5029308;28;20021;-66
2021/12/25 08:12:55;;;;;;;7.90;4.93;;;;;;;;;;5033049;28;20025;-66
2021/12/25 08:15:22;;;;;;;9.17;5.33;;;;;;;;;;5031811;28;20026;-66
2021/12/25 08:17:48;;;;;;;7.73;4.77;;;;;;;;;;5033222;28;20045;-66
2021/12/25 08:20:14;;;;;;;8.50;5.00;;;;;;;;;;5045700;28;20036;-66
2021/12/25 08:22:40;;;;;;;7.70;4.57;;;;;;;;;;5032979;28;20425;-66
2021/12/25 08:25:06;;;;;;;7.13;3.50;;;;;;;;;;5031263;28;20163;-66
2021/12/25 08:27:32;;;;;;;6.07;3.83;;;;;;;;;;5031643;28;20037;-66
2021/12/25 08:29:57;;;;;;;5.43;3.53;;;;;;;;;;5032999;28;20110;-66
2021/12/25 08:32:23;;;;;;;6.20;3.87;;;;;;;;;;5032584;28;20065;-66
2021/12/25 08:34:48;;;;;;;5.70;3.50;;;;;;;;;;5027455;28;20029;-66
2021/12/25 08:37:14;;;;;;;4.97;3.00;;;;;;;;;;5015400;28;20143;-66
2021/12/25 08:39:39;;;;;;;6.77;3.80;;;;;;;;;;5031497;28;20045;-66
2021/12/25 08:42:05;;;;;;;6.33;3.10;;;;;;;;;;5034896;28;20042;-66
2021/12/25 08:46:59;;;;;;;5.13;3.70;;;;;;;;;;5032160;28;20025;-64
2021/12/25 08:49:25;;;;;;;6.20;4.33;;;;;;;;;;5027501;28;20025;-65
2021/12/25 08:51:51;;;;;;;5.77;3.57;;;;;;;;;;5036659;28;20032;-65
2021/12/25 08:54:17;;;;;;;7.30;4.57;;;;;;;;;;5032693;28;20017;-66
2021/12/25 08:56:42;;;;;;;6.07;3.93;;;;;;;;;;5014357;28;20025;-66
2021/12/25 08:59:07;;;;;;;5.53;3.43;;;;;;;;;;5012610;28;20021;-66
2021/12/25 09:01:33;;;;;;;5.33;3.47;;;;;;;;;;5032450;28;20503;-65
2021/12/25 09:03:59;;;;;;;5.47;3.70;;;;;;;;;;5031876;28;20025;-66
2021/12/25 09:06:25;;;;;;;6.30;4.00;;;;;;;;;;5032201;28;20025;-66
2021/12/25 09:08:51;;;;;;;5.97;3.87;;;;;;;;;;5011758;28;20406;-66
2021/12/25 09:11:17;;;;;;;6.00;4.10;;;;;;;;;;5029334;28;20285;-66
2021/12/25 09:13:43;;;;;;;5.20;4.20;;;;;;;;;;5032016;28;20017;-66
2021/12/25 09:16:08;;;;;;;4.60;3.70;;;;;;;;;;5014652;28;20032;-66
2021/12/25 09:18:33;;;;;;;5.97;3.77;;;;;;;;;;5031363;28;20470;-66
2021/12/25 09:20:58;;;;;;;5.43;3.20;;;;;;;;;;5031880;28;20378;-66
2021/12/25 09:23:24;;;;;;;6.30;4.00;;;;;;;;;;5016710;28;20477;-66
2021/12/25 09:25:49;;;;;;;7.37;3.80;;;;;;;;;;5045825;28;20031;-66
2021/12/25 09:28:14;;;;;;;6.83;3.70;;;;;;;;;;5041489;28;20029;-66
2021/12/25 09:30:42;;;;;;;7.17;3.83;;;;;;;;;;5031212;28;20557;-66
2021/12/25 09:33:07;;;;;;;5.60;4.20;;;;;;;;;;5031061;28;20168;-66
2021/12/25 09:35:32;;;;;;;6.23;3.90;;;;;;;;;;5030954;28;20505;-66
2021/12/25 09:37:58;;;;;;;6.43;4.07;;;;;;;;;;5030906;28;20390;-65
2021/12/25 09:40:23;;;;;;;6.30;3.83;;;;;;;;;;5026418;28;20102;-66
2021/12/25 09:42:48;;;;;;;5.13;4.40;;;;;;;;;;5013813;28;20306;-66
2021/12/25 09:45:14;;;;;;;6.07;4.17;;;;;;;;;;5030561;28;20034;-65
2021/12/25 09:47:39;;;;;;;5.67;4.80;;;;;;;;;;5013558;28;20108;-65
2021/12/25 09:50:05;;;;;;;6.83;4.17;;;;;;;;;;5028078;28;20410;-65
2021/12/25 09:52:30;;;;;;;4.23;3.73;;;;;;;;;;5013930;28;20057;-65
2021/12/25 09:54:56;;;;;;;6.17;4.67;;;;;;;;;;5034451;28;20091;-65
2021/12/25 09:57:21;;;;;;;6.43;4.33;;;;;;;;;;5031454;28;20025;-65
2021/12/25 09:59:47;;;;;;;6.33;4.33;;;;;;;;;;5010383;28;20026;-65
2021/12/25 10:02:14;;;;;;;6.50;5.07;;;;;;;;;;5034788;28;20112;-65
2021/12/25 10:04:43;;;;;;;7.10;4.47;;;;;;;;;;5030693;28;20022;-65
2021/12/25 10:07:18;;;;;;;5.90;4.57;;;;;;;;;;5031330;28;20029;-65
2021/12/25 10:09:52;;;;;;;6.40;4.63;;;;;;;;;;5028839;28;20021;-65
2021/12/25 10:12:18;;;;;;;8.70;5.07;;;;;;;;;;5035222;28;20029;-66
2021/12/25 10:14:50;;;;;;;6.13;4.90;;;;;;;;;;5037183;28;20017;-65
2021/12/25 10:17:16;;;;;;;6.07;4.73;;;;;;;;;;5031537;28;20021;-65
2021/12/25 10:19:42;;;;;;;7.13;5.10;;;;;;;;;;5021024;28;20021;-65
2021/12/25 10:22:09;;;;;;;7.57;4.80;;;;;;;;;;5031548;28;20017;-65
2021/12/25 10:24:49;;;;;;;6.23;4.90;;;;;;;;;;5033900;28;20462;-65
2021/12/25 10:27:16;;;;;;;8.30;4.97;;;;;;;;;;5030897;28;20117;-66
2021/12/25 10:29:42;;;;;;;6.50;4.17;;;;;;;;;;5037322;28;20401;-66
2021/12/25 10:32:18;;;;;;;6.67;4.87;;;;;;;;;;5036929;28;20025;-66
2021/12/25 10:34:44;;;;;;;6.70;5.23;;;;;;;;;;5035002;28;20021;-66
2021/12/25 10:37:10;;;;;;;8.10;5.13;;;;;;;;;;5034531;28;20072;-66
2021/12/25 10:39:36;;;;;;;5.80;4.70;;;;;;;;;;5029191;28;20096;-65
2021/12/25 10:42:08;;;;;;;7.40;5.47;;;;;;;;;;5050706;28;20013;-66
2021/12/25 10:44:36;;;;;;;7.40;5.10;;;;;;;;;;5033046;28;20048;-66
2021/12/25 10:47:01;;;;;;;9.63;5.83;;;;;;;;;;5034284;28;20025;-66
2021/12/25 10:49:28;;;;;;;8.40;5.50;;;;;;;;;;5043431;28;20025;-66
2021/12/25 10:51:54;;;;;;;8.13;5.60;;;;;;;;;;5035126;28;20061;-66
2021/12/25 10:54:33;;;;;;;8.30;5.77;;;;;;;;;;5035039;28;20018;-66
2021/12/25 10:56:58;;;;;;;6.23;5.13;;;;;;;;;;5036767;28;20017;-65
2021/12/25 10:59:23;;;;;;;5.37;4.40;;;;;;;;;;5038318;28;20561;-65
2021/12/25 11:01:50;;;;;;;5.17;4.03;;;;;;;;;;5041864;28;20028;-66
2021/12/25 11:04:28;;;;;;;5.13;4.37;;;;;;;;;;5034235;28;20025;-66
2021/12/25 11:06:54;;;;;;;6.40;4.50;;;;;;;;;;5034582;28;20079;-65
2021/12/25 11:09:19;;;;;;;7.83;5.30;;;;;;;;;;5031136;28;20021;-65
2021/12/25 11:12:04;;;;;;;7.73;5.30;;;;;;;;;;5037480;28;20078;-65
2021/12/25 11:14:30;;;;;;;4.30;3.45;;;;;;;;;;5044348;28;20021;-66
2021/12/25 11:16:55;;;;;;;5.73;4.00;;;;;;;;;;5054455;28;20044;-66
2021/12/25 11:19:29;;;;;;;6.60;4.27;;;;;;;;;;5053584;28;20021;-65
2021/12/25 11:21:59;;;;;;;4.30;3.53;;;;;;;;;;5040976;28;20512;-66
2021/12/25 11:24:37;;;;;;;4.97;4.00;;;;;;;;;;5033782;28;20017;-66
2021/12/25 11:27:04;;;;;;;6.43;4.50;;;;;;;;;;5032775;28;20559;-66
2021/12/25 11:29:30;;;;;;;5.30;4.40;;;;;;;;;;5033136;28;20018;-65
2021/12/25 11:31:57;;;;;;;6.80;4.23;;;;;;;;;;5032985;28;20025;-65
2021/12/25 11:34:23;;;;;;;6.17;4.40;;;;;;;;;;5033726;28;20080;-65
2021/12/25 11:36:50;;;;;;;5.60;3.60;;;;;;;;;;5033483;28;20139;-65
2021/12/25 11:39:17;;;;;;;6.27;4.30;;;;;;;;;;5028938;28;20100;-65
2021/12/25 11:41:43;;;;;;;5.83;3.40;;;;;;;;;;5031615;28;20032;-66
2021/12/25 11:44:42;;;;;;;6.63;4.50;;;;;;;;;;5032600;28;20033;-65
2021/12/25 11:47:11;;;;;;;7.13;4.30;;;;;;;;;;5015984;28;20053;-65
2021/12/25 11:49:53;;;;;;;5.77;4.10;;;;;;;;;;5015882;28;20124;-66
2021/12/25 11:52:19;;;;;;;6.87;3.73;;;;;;;;;;5032646;28;20017;-66
2021/12/25 11:55:10;;;;;;;7.23;4.50;;;;;;;;;;5032731;28;20100;-66
2021/12/25 11:57:57;;;;;;;4.85;3.10;;;;;;;;;;5033030;28;20478;-66
2021/12/25 12:00:33;;;;;;;3.60;2.70;;;;;;;;;;5036058;28;20044;-66
2021/12/25 12:02:58;;;;;;;4.97;2.87;;;;;;;;;;5032612;28;20060;-66
2021/12/25 12:05:25;;;;;;;3.23;2.80;;;;;;;;;;5032517;28;20061;-66
2021/12/25 12:08:09;;;;;;;3.03;2.80;;;;;;;;;;5033120;28;20030;-65
2021/12/25 12:10:44;;;;;;;4.17;2.80;;;;;;;;;;5027041;28;20025;-65
2021/12/25 12:13:16;;;;;;;3.20;2.50;;;;;;;;;;5031407;28;20030;-65
2021/12/25 12:15:48;;;;;;;2.80;2.27;;;;;;;;;;5025642;28;20084;-66
2021/12/25 12:18:33;;;;;;;5.17;2.63;;;;;;;;;;5030345;28;20025;-66
2021/12/25 12:21:06;;;;;;;3.53;2.10;;;;;;;;;;5026214;28;20029;-66
2021/12/25 12:23:48;;;;;;;3.80;2.07;;;;;;;;;;5032733;28;20264;-66
2021/12/25 12:26:13;;;;;;;4.57;3.10;;;;;;;;;;5032316;28;20120;-67
2021/12/25 12:28:49;;;;;;;2.67;2.00;;;;;;;;;;5032146;28;20120;-65
2021/12/25 12:31:33;;;;;;;3.20;1.90;;;;;;;;;;5032642;28;20025;-66
2021/12/25 12:33:58;;;;;;;2.10;1.70;;;;;;;;;;5032068;28;20017;-66
2021/12/25 12:36:25;;;;;;;2.80;1.93;;;;;;;;;;5032273;28;20026;-65
2021/12/25 12:38:54;;;;;;;2.27;1.60;;;;;;;;;;5029912;28;20032;-66
2021/12/25 12:41:21;;;;;;;2.40;2.00;;;;;;;;;;5021996;28;20064;-65
2021/12/25 12:43:54;;;;;;;2.67;1.60;;;;;;;;;;5009332;28;20461;-65
2021/12/25 12:46:19;;;;;;;1.77;1.23;;;;;;;;;;5032068;28;20029;-65
2021/12/25 12:49:02;;;;;;;2.97;1.50;;;;;;;;;;5024270;28;20095;-65
2021/12/25 12:51:28;;;;;;;4.57;2.03;;;;;;;;;;5028519;28;20067;-66
2021/12/25 12:53:53;;;;;;;2.93;1.77;;;;;;;;;;5032957;28;20120;-65
2021/12/25 12:56:21;;;;;;;2.70;1.67;;;;;;;;;;5032930;28;20064;-65
2021/12/25 12:58:57;;;;;;;3.10;1.57;;;;;;;;;;5040261;28;20481;-66
2021/12/25 13:01:23;;;;;;;2.07;1.50;;;;;;;;;;5037293;28;20021;-65
2021/12/25 13:03:54;;;;;;;1.20;1.10;;;;;;;;;;5041862;28;20029;-65
2021/12/25 13:06:19;;;;;;;3.80;1.67;;;;;;;;;;5032122;28;20037;-65
2021/12/25 13:08:46;;;;;;;2.00;1.47;;;;;;;;;;5029255;28;20033;-66
2021/12/25 13:11:21;;;;;;;2.83;1.80;;;;;;;;;;5030883;28;20087;-65
2021/12/25 13:13:53;;;;;;;;;;;;;;;;;;5025804;28;20024;-65
2021/12/25 13:16:18;;;;;;;5.03;1.77;;;;;;;;;;5031466;28;20259;-65
2021/12/25 13:18:48;;;;;;;3.33;2.30;;;;;;;;;;5031347;28;20444;-66
2021/12/25 13:21:25;;;;;;;2.67;1.67;;;;;;;;;;5031323;28;20034;-65
2021/12/25 13:23:54;;;;;;;3.07;1.80;;;;;;;;;;5032020;28;20025;-66
2021/12/25 13:26:20;;;;;;;2.37;1.43;;;;;;;;;;5010805;28;20021;-65
2021/12/25 13:28:47;;;;;;;2.57;1.57;;;;;;;;;;5030613;28;20025;-65
2021/12/25 13:31:20;;;;;;;3.43;1.80;;;;;;;;;;5034440;28;20119;-65
2021/12/25 13:33:47;;;;;;;2.17;1.63;;;;;;;;;;5031080;28;20112;-65
2021/12/25 13:36:13;;;;;;;2.07;1.30;;;;;;;;;;5014020;28;20418;-66
2021/12/25 13:38:46;;;;;;;2.60;1.27;;;;;;;;;;5029490;28;20029;-65
2021/12/25 13:41:11;;;;;;;2.13;1.57;;;;;;;;;;5028606;28;20044;-66
2021/12/25 13:43:36;;;;;;;1.87;1.40;;;;;;;;;;5030890;28;20386;-65
2021/12/25 13:46:02;;;;;;;2.47;1.43;;;;;;;;;;5040198;28;20497;-65
2021/12/25 13:48:27;;;;;;;1.83;1.47;;;;;;;;;;5033402;28;20021;-65
2021/12/25 13:50:59;;;;;;;2.87;1.60;;;;;;;;;;5031708;28;20036;-65
2021/12/25 13:53:28;;;;;;;2.67;1.40;;;;;;;;;;5031804;28;20021;-65
2021/12/25 13:55:54;;;;;;;2.73;1.37;;;;;;;;;;5031739;28;20075;-65
2021/12/25 13:58:19;;;;;;;1.97;1.50;;;;;;;;;;5002225;28;20021;-65
2021/12/25 14:00:48;;;;;;;3.43;1.43;;;;;;;;;;5032194;28;20022;-66
2021/12/25 14:03:16;;;;;;;2.67;1.73;;;;;;;;;;5030640;28;20037;-66
2021/12/25 14:05:44;;;;;;;2.33;2.00;;;;;;;;;;5030793;28;20033;-66
2021/12/25 14:08:10;;;;;;;3.67;1.60;;;;;;;;;;5020078;28;20030;-66
2021/12/25 14:10:37;;;;;;;3.03;1.73;;;;;;;;;;5024790;28;20482;-65
2021/12/25 14:13:04;;;;;;;3.07;1.60;;;;;;;;;;5030684;28;20470;-65
2021/12/25 14:15:31;;;;;;;3.67;1.70;;;;;;;;;;5031395;28;20123;-65
2021/12/25 14:17:57;;;;;;;3.63;1.63;;;;;;;;;;5034097;28;20413;-65
2021/12/25 14:20:24;;;;;;;3.80;1.80;;;;;;;;;;5028622;28;20108;-65
2021/12/25 14:22:58;;;;;;;3.20;1.73;;;;;;;;;;5028774;28;20022;-65
2021/12/25 14:25:24;;;;;;;3.90;2.10;;;;;;;;;;5018457;28;20026;-64
2021/12/25 14:28:19;;;;;;;3.73;1.70;;;;;;;;;;5024557;28;20026;-65
2021/12/25 14:30:44;;;;;;;4.63;2.00;;;;;;;;;;5009409;28;20029;-65
2021/12/25 14:33:18;;;;;;;3.00;2.07;;;;;;;;;;5028144;28;20424;-65
2021/12/25 14:35:43;;;;;;;3.13;1.73;;;;;;;;;;5030855;28;20028;-65
2021/12/25 14:38:08;;;;;;;3.37;2.20;;;;;;;;;;5028021;28;20109;-65
2021/12/25 14:40:35;;;;;;;4.60;2.13;;;;;;;;;;5025206;28;20041;-66
2021/12/25 14:43:05;;;;;;;2.50;1.83;;;;;;;;;;5012677;28;20056;-66
2021/12/25 14:45:44;;;;;;;7.37;2.30;;;;;;;;;;5029858;28;20056;-65
2021/12/25 14:48:09;;;;;;;4.13;2.20;;;;;;;;;;5030835;28;20490;-65
2021/12/25 14:50:35;;;;;;;4.77;2.47;;;;;;;;;;5030743;28;20068;-65
2021/12/25 14:53:06;;;;;;;3.67;2.37;;;;;;;;;;5030173;28;20017;-65
2021/12/25 14:55:35;;;;;;;4.87;2.80;;;;;;;;;;5030650;28;20509;-65
2021/12/25 14:58:04;;;;;;;3.70;2.40;;;;;;;;;;5030465;28;20588;-65
2021/12/25 15:00:30;;;;;;;5.17;3.13;;;;;;;;;;5030692;28;20481;-65
2021/12/25 15:03:06;;;;;;;5.03;2.70;;;;;;;;;;5006182;28;20018;-65
2021/12/25 15:05:38;;;;;;;6.53;4.10;;;;;;;;;;5029389;28;20032;-66
2021/12/25 15:08:22;;;;;;;3.37;2.70;;;;;;;;;;5012126;28;20033;-68
2021/12/25 15:10:47;;;;;;;3.20;2.53;;;;;;;;;;5025381;28;20136;-68
2021/12/25 15:13:18;;;;;;;5.27;2.70;;;;;;;;;;5025468;28;20133;-67
2021/12/25 15:15:56;;;;;;;4.23;3.20;;;;;;;;;;5030483;28;20025;-66
2021/12/25 15:18:22;;;;;;;4.70;2.70;;;;;;;;;;5030140;28;20026;-66
2021/12/25 15:20:48;;;;;;;6.30;3.60;;;;;;;;;;5032830;28;20025;-66
2021/12/25 15:23:17;;;;;;;5.60;3.30;;;;;;;;;;5032911;28;20131;-66
2021/12/25 15:25:43;;;;;;;5.80;3.30;;;;;;;;;;5032339;28;20505;-66
2021/12/25 15:28:08;;;;;;;4.60;3.67;;;;;;;;;;5014424;28;20025;-66
2021/12/25 15:30:34;;;;;;;4.93;3.73;;;;;;;;;;5033511;28;20029;-67
2021/12/25 15:33:07;;;;;;;5.70;3.80;;;;;;;;;;5033140;28;20036;-67
2021/12/25 15:35:34;;;;;;;5.50;3.87;;;;;;;;;;5024053;28;20096;-67
2021/12/25 15:38:24;;;;;;;6.63;4.13;;;;;;;;;;5032806;28;20025;-68
2021/12/25 15:40:52;;;;;;;7.57;4.83;;;;;;;;;;4990844;28;20133;-67
2021/12/25 15:43:17;;;;;;;9.93;5.40;;;;;;;;;;5007579;28;20157;-67
2021/12/25 15:45:42;;;;;;;6.00;5.40;;;;;;;;;;5009174;28;20068;-67
2021/12/25 15:48:08;;;;;;;5.40;4.70;;;;;;;;;;5011704;28;20049;-67
2021/12/25 15:50:34;;;;;;;6.53;5.07;;;;;;;;;;5014428;28;20026;-67
2021/12/25 15:53:00;;;;;;;6.50;4.97;;;;;;;;;;5011165;28;20037;-66